»·PEaware :: N13W KSBP-KEMT

N13W :: KSBP-KEMT

FLIGHT INFORMATION

Flight Status: Arrived
Operator: Privately registered:
United States
More flights under this callsign
Pilot: Will N. (25416)
Aircraft: SOCATA TBM-900
(TBM9)
More flights by this aircraft type
Origin: KSBP San Luis Co Regl
United States
Destination: KEMT El Monte
United States
More flights between these airports :: More routes between these airports
Route: RZS V386 FIM V186 ITSME V264 POM V197 PDZ
File this flight plan on PilotEdge
Remarks:
Altitude:
(Current/Filed)
17,000ft
Speed:
(Current/Filed)
260kts
Departed: 09-Jan-21 08:23 AM
Arrived: 09-Jan-21 09:08 AM
Distance/Time
Traveled:
146nm/0:45
Distance/Time
To Go:
Arrived

Flight Plot

Page will automatically refresh every two minutes.

Flight plan parsing failed; only flown route is shown


Map Options




Map Legend


Flown Route
Filed Route
Departure Airport
Arrival Airport
Navaid (VOR, NDB)
Fix

Horizontal Profiles

Position Reports

Time Latitude Longitude Heading Altitude Ground
Speed
09-Jan-21 08:02 35.236626 -120.636268 125 215ft 0kts
09-Jan-21 08:03 35.236626 -120.636268 125 215ft 0kts
09-Jan-21 08:04 35.236626 -120.636268 125 215ft 0kts
09-Jan-21 08:05 35.236626 -120.636268 125 215ft 0kts
09-Jan-21 08:06 35.236626 -120.636268 125 215ft 0kts
09-Jan-21 08:07 35.236626 -120.636268 125 215ft 0kts
09-Jan-21 08:08 35.236626 -120.636268 125 215ft 0kts
09-Jan-21 08:09 35.236626 -120.636268 125 215ft 0kts
09-Jan-21 08:10 35.236626 -120.636268 125 215ft 0kts
09-Jan-21 08:11 35.236626 -120.636268 125 215ft 0kts
09-Jan-21 08:12 35.236626 -120.636268 125 215ft 0kts
09-Jan-21 08:13 35.236626 -120.636268 125 215ft 0kts
09-Jan-21 08:14 35.236626 -120.636268 125 215ft 0kts
09-Jan-21 08:15 35.236626 -120.636268 125 215ft 0kts
09-Jan-21 08:16 35.236626 -120.636268 125 215ft 0kts
09-Jan-21 08:17 35.236626 -120.636268 125 215ft 0kts
09-Jan-21 08:18 35.235366 -120.635645 124 215ft 8kts
09-Jan-21 08:19 35.233718 -120.632688 125 215ft 10kts
09-Jan-21 08:20 35.233245 -120.632315 199 215ft 0kts
09-Jan-21 08:21 35.232844 -120.632675 222 215ft 5kts
09-Jan-21 08:22 35.236797 -120.640109 303 216ft 115kts
09-Jan-21 08:23 35.261988 -120.683081 302 2036ft 149kts
09-Jan-21 08:24 35.273665 -120.727679 223 4355ft 141kts
09-Jan-21 08:25 35.239024 -120.707576 133 6388ft 157kts
09-Jan-21 08:26 35.206991 -120.666534 133 7798ft 201kts
09-Jan-21 08:27 35.161999 -120.608105 132 7767ft 246kts
09-Jan-21 08:28 35.111243 -120.542148 132 7762ft 251kts
09-Jan-21 08:29 35.061443 -120.477657 132 7762ft 251kts
09-Jan-21 08:30 35.010295 -120.411549 132 7762ft 251kts
09-Jan-21 08:31 34.957919 -120.343978 133 7762ft 251kts
09-Jan-21 08:32 34.906893 -120.278268 133 7762ft 251kts
09-Jan-21 08:33 34.855336 -120.211939 133 7762ft 255kts
09-Jan-21 08:34 34.802625 -120.144276 133 7762ft 255kts
09-Jan-21 08:35 34.749954 -120.076832 133 7762ft 256kts
09-Jan-21 08:36 34.697704 -120.010123 133 7872ft 255kts
09-Jan-21 08:37 34.646330 -119.944596 133 7872ft 255kts
09-Jan-21 08:38 34.593305 -119.877121 133 7871ft 256kts
09-Jan-21 08:39 34.540094 -119.809547 133 7871ft 256kts
09-Jan-21 08:40 34.503263 -119.733071 101 7875ft 255kts
09-Jan-21 08:41 34.487612 -119.640142 101 7871ft 256kts
09-Jan-21 08:42 34.471831 -119.546973 101 7871ft 256kts
09-Jan-21 08:43 34.456240 -119.455344 101 7862ft 256kts
09-Jan-21 08:44 34.440867 -119.365435 101 7862ft 256kts
09-Jan-21 08:45 34.426034 -119.279096 101 7862ft 256kts
09-Jan-21 08:46 34.400595 -119.198965 111 7862ft 256kts
09-Jan-21 08:47 34.373949 -119.118783 111 7862ft 256kts
09-Jan-21 08:48 34.347347 -119.038721 111 7862ft 256kts
09-Jan-21 08:49 34.320752 -118.959123 111 7272ft 248kts
09-Jan-21 08:50 34.295112 -118.882728 111 6877ft 236kts
09-Jan-21 08:51 34.270888 -118.810628 111 6880ft 229kts
09-Jan-21 08:52 34.246934 -118.739244 111 6880ft 227kts
09-Jan-21 08:53 34.223272 -118.668686 111 6880ft 224kts
09-Jan-21 08:55 34.199853 -118.598787 111 6880ft 223kts
09-Jan-21 08:56 34.176588 -118.529320 111 6879ft 219kts
09-Jan-21 08:57 34.154692 -118.463901 111 6876ft 203kts
09-Jan-21 08:58 34.147519 -118.394919 91 5872ft 212kts
09-Jan-21 08:59 34.145502 -118.323060 91 4321ft 203kts
09-Jan-21 09:00 34.135552 -118.257724 101 3788ft 165kts
09-Jan-21 09:01 34.127099 -118.205592 101 2783ft 131kts
09-Jan-21 09:02 34.127777 -118.158846 70 1714ft 132kts
09-Jan-21 09:03 34.141187 -118.114264 69 1680ft 130kts
09-Jan-21 09:04 34.140428 -118.073322 111 1673ft 100kts
09-Jan-21 09:05 34.133620 -118.042178 97 1390ft 89kts
09-Jan-21 09:06 34.123005 -118.015990 164 1069ft 87kts
09-Jan-21 09:07 34.099125 -118.027346 205 558ft 83kts
09-Jan-21 09:08 34.083122 -118.036206 138 288ft 6kts
09-Jan-21 09:09 34.083089 -118.035865 23 289ft 2kts
09-Jan-21 09:09 34.084018 -118.035064 54 288ft 5kts
09-Jan-21 09:11 34.085175 -118.034251 21 288ft 0kts
09-Jan-21 09:12 34.085175 -118.034251 21 288ft 0kts
09-Jan-21 09:12 34.085175 -118.034251 21 288ft 0kts
09-Jan-21 09:13 34.085175 -118.034251 21 288ft 0kts

Navigation Log

Ident Type
Flight plan parsing failed, navigation log unavailable